sensor_id;sensor_type;location;lat;lon;timestamp;P1;durP1;ratioP1;P2;durP2;ratioP2
1987;SDS011;12775;46.994;15.498;2023-06-10T00:01:55;7.16;;;6.46;;
1987;SDS011;12775;46.994;15.498;2023-06-10T00:04:22;6.54;;;5.74;;
1987;SDS011;12775;46.994;15.498;2023-06-10T00:06:48;8.26;;;7.48;;
1987;SDS011;12775;46.994;15.498;2023-06-10T00:09:15;6.24;;;5.74;;
1987;SDS011;12775;46.994;15.498;2023-06-10T00:11:42;7.66;;;6.42;;
1987;SDS011;12775;46.994;15.498;2023-06-10T00:14:08;6.88;;;5.98;;
1987;SDS011;12775;46.994;15.498;2023-06-10T00:16:36;7.32;;;5.56;;
1987;SDS011;12775;46.994;15.498;2023-06-10T00:19:03;7.88;;;6.38;;
1987;SDS011;12775;46.994;15.498;2023-06-10T00:21:29;7.24;;;6.00;;
1987;SDS011;12775;46.994;15.498;2023-06-10T00:23:56;7.74;;;7.04;;
1987;SDS011;12775;46.994;15.498;2023-06-10T00:26:22;7.66;;;6.84;;
1987;SDS011;12775;46.994;15.498;2023-06-10T00:28:49;7.08;;;6.48;;
1987;SDS011;12775;46.994;15.498;2023-06-10T00:31:15;7.42;;;5.70;;
1987;SDS011;12775;46.994;15.498;2023-06-10T00:33:42;8.22;;;7.18;;
1987;SDS011;12775;46.994;15.498;2023-06-10T00:36:08;8.20;;;7.50;;
1987;SDS011;12775;46.994;15.498;2023-06-10T00:38:35;11.00;;;7.82;;
1987;SDS011;12775;46.994;15.498;2023-06-10T00:41:02;7.52;;;6.90;;
1987;SDS011;12775;46.994;15.498;2023-06-10T00:43:29;6.30;;;5.80;;
1987;SDS011;12775;46.994;15.498;2023-06-10T00:45:55;7.84;;;7.04;;
1987;SDS011;12775;46.994;15.498;2023-06-10T00:48:22;9.08;;;6.22;;
1987;SDS011;12775;46.994;15.498;2023-06-10T00:50:49;12.48;;;8.24;;
1987;SDS011;12775;46.994;15.498;2023-06-10T00:53:16;7.48;;;6.58;;
1987;SDS011;12775;46.994;15.498;2023-06-10T00:55:44;8.12;;;7.36;;
1987;SDS011;12775;46.994;15.498;2023-06-10T00:58:10;10.62;;;8.36;;
1987;SDS011;12775;46.994;15.498;2023-06-10T01:00:37;22.78;;;9.34;;
1987;SDS011;12775;46.994;15.498;2023-06-10T01:03:05;22.78;;;9.50;;
1987;SDS011;12775;46.994;15.498;2023-06-10T01:05:34;20.66;;;9.82;;
1987;SDS011;12775;46.994;15.498;2023-06-10T01:08:07;13.48;;;8.92;;
1987;SDS011;12775;46.994;15.498;2023-06-10T01:10:41;8.92;;;8.02;;
1987;SDS011;12775;46.994;15.498;2023-06-10T01:13:09;10.36;;;8.24;;
1987;SDS011;12775;46.994;15.498;2023-06-10T01:15:36;15.74;;;8.86;;
1987;SDS011;12775;46.994;15.498;2023-06-10T01:18:05;14.30;;;9.04;;
1987;SDS011;12775;46.994;15.498;2023-06-10T01:20:31;9.26;;;8.00;;
1987;SDS011;12775;46.994;15.498;2023-06-10T01:22:58;8.28;;;7.48;;
1987;SDS011;12775;46.994;15.498;2023-06-10T01:25:24;8.16;;;7.40;;
1987;SDS011;12775;46.994;15.498;2023-06-10T01:28:02;7.84;;;6.54;;
1987;SDS011;12775;46.994;15.498;2023-06-10T01:30:32;8.52;;;7.78;;
1987;SDS011;12775;46.994;15.498;2023-06-10T01:32:57;7.44;;;6.30;;
1987;SDS011;12775;46.994;15.498;2023-06-10T01:35:24;10.94;;;6.64;;
1987;SDS011;12775;46.994;15.498;2023-06-10T01:37:51;8.10;;;7.04;;
1987;SDS011;12775;46.994;15.498;2023-06-10T01:40:17;7.70;;;6.96;;
1987;SDS011;12775;46.994;15.498;2023-06-10T01:42:44;8.70;;;8.00;;
1987;SDS011;12775;46.994;15.498;2023-06-10T01:45:12;7.24;;;6.60;;
1987;SDS011;12775;46.994;15.498;2023-06-10T01:47:39;8.78;;;7.90;;
1987;SDS011;12775;46.994;15.498;2023-06-10T01:50:05;9.54;;;7.54;;
1987;SDS011;12775;46.994;15.498;2023-06-10T01:52:32;11.56;;;8.46;;
1987;SDS011;12775;46.994;15.498;2023-06-10T01:54:59;14.16;;;7.96;;
1987;SDS011;12775;46.994;15.498;2023-06-10T01:57:26;15.74;;;8.90;;
1987;SDS011;12775;46.994;15.498;2023-06-10T01:59:52;11.12;;;9.22;;
1987;SDS011;12775;46.994;15.498;2023-06-10T02:02:19;13.80;;;10.98;;
1987;SDS011;12775;46.994;15.498;2023-06-10T02:04:45;15.48;;;12.58;;
1987;SDS011;12775;46.994;15.498;2023-06-10T02:07:13;10.72;;;9.72;;
1987;SDS011;12775;46.994;15.498;2023-06-10T02:09:39;10.16;;;9.26;;
1987;SDS011;12775;46.994;15.498;2023-06-10T02:12:06;11.24;;;10.16;;
1987;SDS011;12775;46.994;15.498;2023-06-10T02:14:33;11.58;;;10.38;;
1987;SDS011;12775;46.994;15.498;2023-06-10T02:17:00;12.24;;;10.86;;
1987;SDS011;12775;46.994;15.498;2023-06-10T02:19:26;11.02;;;10.02;;
1987;SDS011;12775;46.994;15.498;2023-06-10T02:21:53;11.46;;;10.26;;
1987;SDS011;12775;46.994;15.498;2023-06-10T02:24:19;10.72;;;9.72;;
1987;SDS011;12775;46.994;15.498;2023-06-10T02:26:46;13.06;;;9.36;;
1987;SDS011;12775;46.994;15.498;2023-06-10T02:29:13;21.60;;;10.04;;
1987;SDS011;12775;46.994;15.498;2023-06-10T02:31:40;19.92;;;8.64;;
1987;SDS011;12775;46.994;15.498;2023-06-10T02:34:07;11.00;;;8.10;;
1987;SDS011;12775;46.994;15.498;2023-06-10T02:36:34;14.98;;;8.52;;
1987;SDS011;12775;46.994;15.498;2023-06-10T02:39:01;16.54;;;8.42;;
1987;SDS011;12775;46.994;15.498;2023-06-10T02:41:27;21.24;;;8.98;;
1987;SDS011;12775;46.994;15.498;2023-06-10T02:43:54;12.22;;;7.48;;
1987;SDS011;12775;46.994;15.498;2023-06-10T02:46:20;14.58;;;8.52;;
1987;SDS011;12775;46.994;15.498;2023-06-10T02:48:47;14.42;;;8.86;;
1987;SDS011;12775;46.994;15.498;2023-06-10T02:51:14;11.04;;;7.92;;
1987;SDS011;12775;46.994;15.498;2023-06-10T02:53:40;16.86;;;8.66;;
1987;SDS011;12775;46.994;15.498;2023-06-10T02:56:08;15.12;;;8.90;;
1987;SDS011;12775;46.994;15.498;2023-06-10T02:58:34;10.68;;;8.78;;
1987;SDS011;12775;46.994;15.498;2023-06-10T03:01:01;14.34;;;8.40;;
1987;SDS011;12775;46.994;15.498;2023-06-10T03:03:27;11.06;;;8.70;;
1987;SDS011;12775;46.994;15.498;2023-06-10T03:05:54;16.52;;;9.00;;
1987;SDS011;12775;46.994;15.498;2023-06-10T03:08:20;15.02;;;8.50;;
1987;SDS011;12775;46.994;15.498;2023-06-10T03:10:47;16.46;;;9.00;;
1987;SDS011;12775;46.994;15.498;2023-06-10T03:13:14;13.44;;;8.24;;
1987;SDS011;12775;46.994;15.498;2023-06-10T03:15:40;12.12;;;7.68;;
1987;SDS011;12775;46.994;15.498;2023-06-10T03:18:08;41.34;;;9.60;;
1987;SDS011;12775;46.994;15.498;2023-06-10T03:20:34;14.36;;;7.42;;
1987;SDS011;12775;46.994;15.498;2023-06-10T03:23:04;11.38;;;8.14;;
1987;SDS011;12775;46.994;15.498;2023-06-10T03:25:30;11.80;;;8.50;;
1987;SDS011;12775;46.994;15.498;2023-06-10T03:27:57;12.82;;;7.56;;
1987;SDS011;12775;46.994;15.498;2023-06-10T03:30:23;18.34;;;7.36;;
1987;SDS011;12775;46.994;15.498;2023-06-10T03:32:50;10.90;;;7.20;;
1987;SDS011;12775;46.994;15.498;2023-06-10T03:35:17;14.66;;;7.54;;
1987;SDS011;12775;46.994;15.498;2023-06-10T03:37:43;16.58;;;8.04;;
1987;SDS011;12775;46.994;15.498;2023-06-10T03:40:10;8.36;;;6.66;;
1987;SDS011;12775;46.994;15.498;2023-06-10T03:42:38;13.52;;;8.08;;
1987;SDS011;12775;46.994;15.498;2023-06-10T03:45:05;11.84;;;7.14;;
1987;SDS011;12775;46.994;15.498;2023-06-10T03:47:34;13.52;;;8.76;;
1987;SDS011;12775;46.994;15.498;2023-06-10T03:50:01;11.32;;;8.32;;
1987;SDS011;12775;46.994;15.498;2023-06-10T03:52:27;10.60;;;8.30;;
1987;SDS011;12775;46.994;15.498;2023-06-10T03:54:54;12.00;;;8.48;;
1987;SDS011;12775;46.994;15.498;2023-06-10T03:57:21;12.76;;;8.22;;
1987;SDS011;12775;46.994;15.498;2023-06-10T03:59:47;9.90;;;8.42;;
1987;SDS011;12775;46.994;15.498;2023-06-10T04:02:15;14.40;;;8.54;;
1987;SDS011;12775;46.994;15.498;2023-06-10T04:04:41;8.86;;;8.06;;
1987;SDS011;12775;46.994;15.498;2023-06-10T04:07:09;9.50;;;8.52;;
1987;SDS011;12775;46.994;15.498;2023-06-10T04:09:36;11.70;;;9.06;;
1987;SDS011;12775;46.994;15.498;2023-06-10T04:12:04;8.88;;;8.00;;
1987;SDS011;12775;46.994;15.498;2023-06-10T04:14:31;7.68;;;7.08;;
1987;SDS011;12775;46.994;15.498;2023-06-10T04:16:58;9.04;;;8.20;;
1987;SDS011;12775;46.994;15.498;2023-06-10T04:19:25;8.42;;;7.62;;
1987;SDS011;12775;46.994;15.498;2023-06-10T04:21:51;7.78;;;7.08;;
1987;SDS011;12775;46.994;15.498;2023-06-10T04:24:18;8.80;;;8.00;;
1987;SDS011;12775;46.994;15.498;2023-06-10T04:26:45;9.08;;;8.30;;
1987;SDS011;12775;46.994;15.498;2023-06-10T04:29:12;8.88;;;8.18;;
1987;SDS011;12775;46.994;15.498;2023-06-10T04:31:38;9.00;;;8.30;;
1987;SDS011;12775;46.994;15.498;2023-06-10T04:34:05;8.86;;;8.12;;
1987;SDS011;12775;46.994;15.498;2023-06-10T04:36:32;10.38;;;9.30;;
1987;SDS011;12775;46.994;15.498;2023-06-10T04:39:00;8.52;;;7.82;;
1987;SDS011;12775;46.994;15.498;2023-06-10T04:41:27;6.86;;;6.24;;
1987;SDS011;12775;46.994;15.498;2023-06-10T04:43:54;9.66;;;8.22;;
1987;SDS011;12775;46.994;15.498;2023-06-10T04:46:22;7.12;;;6.52;;
1987;SDS011;12775;46.994;15.498;2023-06-10T04:48:48;6.72;;;6.12;;
1987;SDS011;12775;46.994;15.498;2023-06-10T04:51:16;7.02;;;6.42;;
1987;SDS011;12775;46.994;15.498;2023-06-10T04:53:42;6.84;;;6.34;;
1987;SDS011;12775;46.994;15.498;2023-06-10T04:56:10;7.82;;;7.16;;
1987;SDS011;12775;46.994;15.498;2023-06-10T04:58:36;7.66;;;6.96;;
1987;SDS011;12775;46.994;15.498;2023-06-10T05:01:03;7.72;;;7.12;;
1987;SDS011;12775;46.994;15.498;2023-06-10T05:03:30;7.72;;;6.78;;
1987;SDS011;12775;46.994;15.498;2023-06-10T05:05:57;6.78;;;6.28;;
1987;SDS011;12775;46.994;15.498;2023-06-10T05:08:24;7.78;;;7.08;;
1987;SDS011;12775;46.994;15.498;2023-06-10T05:10:51;7.48;;;6.88;;
1987;SDS011;12775;46.994;15.498;2023-06-10T05:13:17;6.68;;;6.12;;
1987;SDS011;12775;46.994;15.498;2023-06-10T05:15:44;7.20;;;6.64;;
1987;SDS011;12775;46.994;15.498;2023-06-10T05:18:11;7.26;;;6.60;;
1987;SDS011;12775;46.994;15.498;2023-06-10T05:20:39;7.88;;;7.16;;
1987;SDS011;12775;46.994;15.498;2023-06-10T05:23:06;8.40;;;7.66;;
1987;SDS011;12775;46.994;15.498;2023-06-10T05:25:33;7.78;;;7.18;;
1987;SDS011;12775;46.994;15.498;2023-06-10T05:27:59;7.68;;;7.08;;
1987;SDS011;12775;46.994;15.498;2023-06-10T05:30:26;8.06;;;7.34;;
1987;SDS011;12775;46.994;15.498;2023-06-10T05:32:53;7.84;;;7.24;;
1987;SDS011;12775;46.994;15.498;2023-06-10T05:35:20;8.04;;;7.24;;
1987;SDS011;12775;46.994;15.498;2023-06-10T05:37:47;7.88;;;7.28;;
1987;SDS011;12775;46.994;15.498;2023-06-10T05:40:13;7.98;;;7.38;;
1987;SDS011;12775;46.994;15.498;2023-06-10T05:42:40;7.54;;;6.94;;
1987;SDS011;12775;46.994;15.498;2023-06-10T05:45:07;8.52;;;7.82;;
1987;SDS011;12775;46.994;15.498;2023-06-10T05:47:35;8.18;;;7.58;;
1987;SDS011;12775;46.994;15.498;2023-06-10T05:50:02;9.48;;;8.68;;
1987;SDS011;12775;46.994;15.498;2023-06-10T05:52:29;8.84;;;7.58;;
1987;SDS011;12775;46.994;15.498;2023-06-10T05:54:55;9.38;;;7.78;;
1987;SDS011;12775;46.994;15.498;2023-06-10T05:57:22;8.50;;;7.88;;
1987;SDS011;12775;46.994;15.498;2023-06-10T05:59:49;8.48;;;7.78;;
1987;SDS011;12775;46.994;15.498;2023-06-10T06:02:17;7.90;;;7.30;;
1987;SDS011;12775;46.994;15.498;2023-06-10T06:04:43;8.82;;;7.70;;
1987;SDS011;12775;46.994;15.498;2023-06-10T06:07:11;8.24;;;7.54;;
1987;SDS011;12775;46.994;15.498;2023-06-10T06:09:38;8.80;;;8.06;;
1987;SDS011;12775;46.994;15.498;2023-06-10T06:12:06;8.02;;;7.46;;
1987;SDS011;12775;46.994;15.498;2023-06-10T06:14:36;9.44;;;8.70;;
1987;SDS011;12775;46.994;15.498;2023-06-10T06:17:00;8.44;;;7.74;;
1987;SDS011;12775;46.994;15.498;2023-06-10T06:19:27;8.86;;;8.06;;
1987;SDS011;12775;46.994;15.498;2023-06-10T06:21:54;8.26;;;7.56;;
1987;SDS011;12775;46.994;15.498;2023-06-10T06:24:21;8.70;;;7.94;;
1987;SDS011;12775;46.994;15.498;2023-06-10T06:26:48;9.56;;;8.24;;
1987;SDS011;12775;46.994;15.498;2023-06-10T06:29:16;8.08;;;7.38;;
1987;SDS011;12775;46.994;15.498;2023-06-10T06:31:43;8.96;;;8.26;;
1987;SDS011;12775;46.994;15.498;2023-06-10T06:34:11;9.26;;;8.50;;
1987;SDS011;12775;46.994;15.498;2023-06-10T06:36:38;8.18;;;7.50;;
1987;SDS011;12775;46.994;15.498;2023-06-10T06:39:06;8.92;;;8.22;;
1987;SDS011;12775;46.994;15.498;2023-06-10T06:41:32;8.90;;;8.10;;
1987;SDS011;12775;46.994;15.498;2023-06-10T06:43:59;9.08;;;8.28;;
1987;SDS011;12775;46.994;15.498;2023-06-10T06:46:27;8.56;;;7.86;;
1987;SDS011;12775;46.994;15.498;2023-06-10T06:48:54;8.80;;;8.10;;
1987;SDS011;12775;46.994;15.498;2023-06-10T06:51:22;9.94;;;8.94;;
1987;SDS011;12775;46.994;15.498;2023-06-10T06:53:49;9.36;;;8.58;;
1987;SDS011;12775;46.994;15.498;2023-06-10T06:56:16;9.90;;;8.98;;
1987;SDS011;12775;46.994;15.498;2023-06-10T06:58:43;9.14;;;8.42;;
1987;SDS011;12775;46.994;15.498;2023-06-10T07:01:10;9.14;;;8.44;;
1987;SDS011;12775;46.994;15.498;2023-06-10T07:03:38;8.94;;;8.14;;
1987;SDS011;12775;46.994;15.498;2023-06-10T07:06:04;9.28;;;8.48;;
1987;SDS011;12775;46.994;15.498;2023-06-10T07:08:32;8.58;;;7.98;;
1987;SDS011;12775;46.994;15.498;2023-06-10T07:10:59;9.22;;;8.44;;
1987;SDS011;12775;46.994;15.498;2023-06-10T07:13:26;9.08;;;8.26;;
1987;SDS011;12775;46.994;15.498;2023-06-10T07:15:52;10.40;;;9.52;;
1987;SDS011;12775;46.994;15.498;2023-06-10T07:18:20;9.96;;;9.16;;
1987;SDS011;12775;46.994;15.498;2023-06-10T07:20:47;9.08;;;8.38;;
1987;SDS011;12775;46.994;15.498;2023-06-10T07:23:14;10.16;;;9.36;;
1987;SDS011;12775;46.994;15.498;2023-06-10T07:25:41;9.94;;;9.14;;
1987;SDS011;12775;46.994;15.498;2023-06-10T07:28:08;10.66;;;8.14;;
1987;SDS011;12775;46.994;15.498;2023-06-10T07:30:34;9.42;;;8.70;;
1987;SDS011;12775;46.994;15.498;2023-06-10T07:33:01;10.14;;;9.18;;
1987;SDS011;12775;46.994;15.498;2023-06-10T07:35:28;9.70;;;8.98;;
1987;SDS011;12775;46.994;15.498;2023-06-10T07:37:55;9.86;;;8.86;;
1987;SDS011;12775;46.994;15.498;2023-06-10T07:40:23;7.98;;;7.28;;
1987;SDS011;12775;46.994;15.498;2023-06-10T07:42:50;7.84;;;7.24;;
1987;SDS011;12775;46.994;15.498;2023-06-10T07:45:18;8.38;;;7.64;;
1987;SDS011;12775;46.994;15.498;2023-06-10T07:47:45;7.66;;;6.96;;
1987;SDS011;12775;46.994;15.498;2023-06-10T07:50:13;7.92;;;7.22;;
1987;SDS011;12775;46.994;15.498;2023-06-10T07:52:40;7.22;;;6.62;;
1987;SDS011;12775;46.994;15.498;2023-06-10T07:55:07;9.14;;;8.34;;
1987;SDS011;12775;46.994;15.498;2023-06-10T07:57:35;6.98;;;6.48;;
1987;SDS011;12775;46.994;15.498;2023-06-10T08:00:02;8.94;;;8.24;;
1987;SDS011;12775;46.994;15.498;2023-06-10T08:02:31;7.72;;;7.02;;
1987;SDS011;12775;46.994;15.498;2023-06-10T08:04:57;6.82;;;6.32;;
1987;SDS011;12775;46.994;15.498;2023-06-10T08:07:25;8.34;;;7.64;;
1987;SDS011;12775;46.994;15.498;2023-06-10T08:09:51;8.26;;;7.58;;
1987;SDS011;12775;46.994;15.498;2023-06-10T08:12:18;7.80;;;7.10;;
1987;SDS011;12775;46.994;15.498;2023-06-10T08:14:45;8.06;;;7.28;;
1987;SDS011;12775;46.994;15.498;2023-06-10T08:17:13;6.54;;;6.04;;
1987;SDS011;12775;46.994;15.498;2023-06-10T08:19:39;6.78;;;6.28;;
1987;SDS011;12775;46.994;15.498;2023-06-10T08:22:07;7.22;;;6.62;;
1987;SDS011;12775;46.994;15.498;2023-06-10T08:24:34;7.20;;;6.60;;
1987;SDS011;12775;46.994;15.498;2023-06-10T08:27:02;7.70;;;7.00;;
1987;SDS011;12775;46.994;15.498;2023-06-10T08:29:30;6.86;;;6.40;;
1987;SDS011;12775;46.994;15.498;2023-06-10T08:31:57;8.54;;;7.76;;
1987;SDS011;12775;46.994;15.498;2023-06-10T08:34:23;8.88;;;8.18;;
1987;SDS011;12775;46.994;15.498;2023-06-10T08:36:50;9.12;;;8.38;;
1987;SDS011;12775;46.994;15.498;2023-06-10T08:39:18;9.56;;;8.76;;
1987;SDS011;12775;46.994;15.498;2023-06-10T08:41:45;9.74;;;8.98;;
1987;SDS011;12775;46.994;15.498;2023-06-10T08:44:16;8.86;;;8.20;;
1987;SDS011;12775;46.994;15.498;2023-06-10T08:46:40;9.14;;;8.34;;
1987;SDS011;12775;46.994;15.498;2023-06-10T08:49:08;9.42;;;8.66;;
1987;SDS011;12775;46.994;15.498;2023-06-10T08:51:35;9.60;;;8.80;;
1987;SDS011;12775;46.994;15.498;2023-06-10T08:54:05;10.66;;;9.72;;
1987;SDS011;12775;46.994;15.498;2023-06-10T08:56:31;8.28;;;7.50;;
1987;SDS011;12775;46.994;15.498;2023-06-10T08:58:58;9.36;;;8.66;;
1987;SDS011;12775;46.994;15.498;2023-06-10T09:01:25;10.24;;;9.30;;
1987;SDS011;12775;46.994;15.498;2023-06-10T09:03:51;9.14;;;8.44;;
1987;SDS011;12775;46.994;15.498;2023-06-10T09:06:17;9.52;;;8.80;;
1987;SDS011;12775;46.994;15.498;2023-06-10T09:08:44;9.64;;;8.84;;
1987;SDS011;12775;46.994;15.498;2023-06-10T09:11:11;9.74;;;8.94;;
1987;SDS011;12775;46.994;15.498;2023-06-10T09:13:39;8.96;;;8.16;;
1987;SDS011;12775;46.994;15.498;2023-06-10T09:16:05;9.48;;;8.78;;
1987;SDS011;12775;46.994;15.498;2023-06-10T09:18:32;24.18;;;12.78;;
1987;SDS011;12775;46.994;15.498;2023-06-10T09:20:59;16.22;;;9.72;;
1987;SDS011;12775;46.994;15.498;2023-06-10T09:23:25;8.38;;;7.68;;
1987;SDS011;12775;46.994;15.498;2023-06-10T09:25:57;9.02;;;8.34;;
1987;SDS011;12775;46.994;15.498;2023-06-10T09:28:23;8.52;;;7.92;;
1987;SDS011;12775;46.994;15.498;2023-06-10T09:30:50;8.60;;;7.80;;
1987;SDS011;12775;46.994;15.498;2023-06-10T09:33:16;9.54;;;8.74;;
1987;SDS011;12775;46.994;15.498;2023-06-10T09:35:46;11.82;;;9.30;;
1987;SDS011;12775;46.994;15.498;2023-06-10T09:38:13;10.10;;;9.10;;
1987;SDS011;12775;46.994;15.498;2023-06-10T09:43:17;9.72;;;8.70;;
1987;SDS011;12775;46.994;15.498;2023-06-10T09:45:43;8.80;;;8.00;;
1987;SDS011;12775;46.994;15.498;2023-06-10T09:48:10;9.82;;;9.02;;
1987;SDS011;12775;46.994;15.498;2023-06-10T09:50:42;8.54;;;7.84;;
1987;SDS011;12775;46.994;15.498;2023-06-10T09:53:10;8.68;;;7.88;;
1987;SDS011;12775;46.994;15.498;2023-06-10T09:55:38;8.94;;;8.14;;
1987;SDS011;12775;46.994;15.498;2023-06-10T09:58:05;9.26;;;7.60;;
1987;SDS011;12775;46.994;15.498;2023-06-10T10:00:32;7.62;;;6.96;;
1987;SDS011;12775;46.994;15.498;2023-06-10T10:02:59;12.16;;;8.84;;
1987;SDS011;12775;46.994;15.498;2023-06-10T10:05:26;6.98;;;6.48;;
1987;SDS011;12775;46.994;15.498;2023-06-10T10:07:53;8.76;;;8.02;;
1987;SDS011;12775;46.994;15.498;2023-06-10T10:10:21;7.18;;;6.68;;
1987;SDS011;12775;46.994;15.498;2023-06-10T10:12:50;7.54;;;6.78;;
1987;SDS011;12775;46.994;15.498;2023-06-10T10:15:15;8.30;;;7.50;;
1987;SDS011;12775;46.994;15.498;2023-06-10T10:20:16;8.00;;;7.40;;
1987;SDS011;12775;46.994;15.498;2023-06-10T10:22:43;9.56;;;8.72;;
1987;SDS011;12775;46.994;15.498;2023-06-10T10:25:11;8.82;;;8.12;;
1987;SDS011;12775;46.994;15.498;2023-06-10T10:27:44;8.78;;;8.16;;
1987;SDS011;12775;46.994;15.498;2023-06-10T10:30:15;7.44;;;6.62;;
1987;SDS011;12775;46.994;15.498;2023-06-10T10:32:45;7.80;;;7.20;;
1987;SDS011;12775;46.994;15.498;2023-06-10T10:35:12;7.04;;;6.44;;
1987;SDS011;12775;46.994;15.498;2023-06-10T10:37:39;8.00;;;7.40;;
1987;SDS011;12775;46.994;15.498;2023-06-10T10:40:06;7.90;;;7.36;;
1987;SDS011;12775;46.994;15.498;2023-06-10T10:42:33;8.20;;;7.50;;
1987;SDS011;12775;46.994;15.498;2023-06-10T10:44:59;7.66;;;7.02;;
1987;SDS011;12775;46.994;15.498;2023-06-10T10:47:27;6.90;;;6.40;;
1987;SDS011;12775;46.994;15.498;2023-06-10T10:49:53;7.00;;;6.50;;
1987;SDS011;12775;46.994;15.498;2023-06-10T10:52:19;7.98;;;7.28;;
1987;SDS011;12775;46.994;15.498;2023-06-10T10:54:46;7.34;;;6.74;;
1987;SDS011;12775;46.994;15.498;2023-06-10T10:57:15;7.02;;;6.52;;
1987;SDS011;12775;46.994;15.498;2023-06-10T10:59:46;6.18;;;5.78;;
1987;SDS011;12775;46.994;15.498;2023-06-10T11:02:16;8.02;;;7.40;;
1987;SDS011;12775;46.994;15.498;2023-06-10T11:04:46;6.94;;;6.40;;
1987;SDS011;12775;46.994;15.498;2023-06-10T11:07:13;7.08;;;6.58;;
1987;SDS011;12775;46.994;15.498;2023-06-10T11:15:07;6.88;;;6.40;;
1987;SDS011;12775;46.994;15.498;2023-06-10T11:17:34;6.52;;;6.00;;
1987;SDS011;12775;46.994;15.498;2023-06-10T11:20:01;6.72;;;6.12;;
1987;SDS011;12775;46.994;15.498;2023-06-10T11:22:28;7.24;;;6.74;;
1987;SDS011;12775;46.994;15.498;2023-06-10T11:24:55;6.62;;;6.12;;
1987;SDS011;12775;46.994;15.498;2023-06-10T11:27:23;7.68;;;6.30;;
1987;SDS011;12775;46.994;15.498;2023-06-10T11:29:55;7.14;;;6.64;;
1987;SDS011;12775;46.994;15.498;2023-06-10T11:32:38;6.64;;;5.66;;
1987;SDS011;12775;46.994;15.498;2023-06-10T11:35:06;6.96;;;6.40;;
1987;SDS011;12775;46.994;15.498;2023-06-10T11:37:32;6.94;;;6.44;;
1987;SDS011;12775;46.994;15.498;2023-06-10T11:40:00;6.50;;;6.10;;
1987;SDS011;12775;46.994;15.498;2023-06-10T11:42:27;6.06;;;5.64;;
1987;SDS011;12775;46.994;15.498;2023-06-10T11:44:53;6.60;;;6.10;;
1987;SDS011;12775;46.994;15.498;2023-06-10T11:47:20;6.70;;;6.30;;
1987;SDS011;12775;46.994;15.498;2023-06-10T11:49:55;5.98;;;5.58;;
1987;SDS011;12775;46.994;15.498;2023-06-10T11:52:26;6.82;;;6.32;;
1987;SDS011;12775;46.994;15.498;2023-06-10T11:54:53;6.62;;;6.12;;
1987;SDS011;12775;46.994;15.498;2023-06-10T11:57:20;6.88;;;6.38;;
1987;SDS011;12775;46.994;15.498;2023-06-10T11:59:47;6.62;;;6.22;;
1987;SDS011;12775;46.994;15.498;2023-06-10T12:02:14;6.62;;;6.02;;
1987;SDS011;12775;46.994;15.498;2023-06-10T12:04:40;6.78;;;6.28;;
1987;SDS011;12775;46.994;15.498;2023-06-10T12:07:08;7.86;;;7.08;;
1987;SDS011;12775;46.994;15.498;2023-06-10T12:09:35;6.34;;;5.64;;
1987;SDS011;12775;46.994;15.498;2023-06-10T12:12:03;7.20;;;6.54;;
1987;SDS011;12775;46.994;15.498;2023-06-10T12:17:11;6.52;;;6.02;;
1987;SDS011;12775;46.994;15.498;2023-06-10T12:19:38;5.68;;;4.98;;
1987;SDS011;12775;46.994;15.498;2023-06-10T12:22:06;6.40;;;5.96;;
1987;SDS011;12775;46.994;15.498;2023-06-10T12:24:32;5.92;;;5.52;;
1987;SDS011;12775;46.994;15.498;2023-06-10T12:27:00;5.52;;;5.12;;
1987;SDS011;12775;46.994;15.498;2023-06-10T12:29:26;6.28;;;5.78;;
1987;SDS011;12775;46.994;15.498;2023-06-10T12:31:53;7.00;;;6.48;;
1987;SDS011;12775;46.994;15.498;2023-06-10T12:34:19;6.44;;;5.84;;
1987;SDS011;12775;46.994;15.498;2023-06-10T12:36:48;6.26;;;5.72;;
1987;SDS011;12775;46.994;15.498;2023-06-10T12:39:14;6.96;;;6.44;;
1987;SDS011;12775;46.994;15.498;2023-06-10T12:41:46;5.54;;;5.14;;
1987;SDS011;12775;46.994;15.498;2023-06-10T12:44:08;6.62;;;6.02;;
1987;SDS011;12775;46.994;15.498;2023-06-10T12:46:36;6.66;;;6.08;;
1987;SDS011;12775;46.994;15.498;2023-06-10T12:49:02;6.90;;;6.40;;
1987;SDS011;12775;46.994;15.498;2023-06-10T12:51:29;5.94;;;5.44;;
1987;SDS011;12775;46.994;15.498;2023-06-10T12:53:55;6.14;;;5.64;;
1987;SDS011;12775;46.994;15.498;2023-06-10T12:56:22;6.68;;;6.18;;
1987;SDS011;12775;46.994;15.498;2023-06-10T12:58:49;6.40;;;5.90;;
1987;SDS011;12775;46.994;15.498;2023-06-10T13:01:17;6.46;;;6.04;;
1987;SDS011;12775;46.994;15.498;2023-06-10T13:03:43;7.60;;;6.50;;
1987;SDS011;12775;46.994;15.498;2023-06-10T13:06:10;6.50;;;5.62;;
1987;SDS011;12775;46.994;15.498;2023-06-10T13:08:36;6.50;;;5.80;;
1987;SDS011;12775;46.994;15.498;2023-06-10T13:11:03;5.36;;;4.90;;
1987;SDS011;12775;46.994;15.498;2023-06-10T13:13:30;5.14;;;4.78;;
1987;SDS011;12775;46.994;15.498;2023-06-10T13:15:57;5.34;;;4.94;;
1987;SDS011;12775;46.994;15.498;2023-06-10T13:18:24;6.36;;;5.96;;
1987;SDS011;12775;46.994;15.498;2023-06-10T13:20:51;6.12;;;5.62;;
1987;SDS011;12775;46.994;15.498;2023-06-10T13:23:18;7.08;;;6.44;;
1987;SDS011;12775;46.994;15.498;2023-06-10T13:25:45;6.50;;;5.50;;
1987;SDS011;12775;46.994;15.498;2023-06-10T13:28:12;5.92;;;5.42;;
1987;SDS011;12775;46.994;15.498;2023-06-10T13:30:39;5.38;;;4.88;;
1987;SDS011;12775;46.994;15.498;2023-06-10T13:33:06;6.18;;;5.68;;
1987;SDS011;12775;46.994;15.498;2023-06-10T13:35:32;6.10;;;5.54;;
1987;SDS011;12775;46.994;15.498;2023-06-10T13:37:59;6.52;;;6.02;;
1987;SDS011;12775;46.994;15.498;2023-06-10T13:40:25;6.70;;;6.10;;
1987;SDS011;12775;46.994;15.498;2023-06-10T13:42:52;6.56;;;5.78;;
1987;SDS011;12775;46.994;15.498;2023-06-10T13:45:19;6.98;;;6.48;;
1987;SDS011;12775;46.994;15.498;2023-06-10T13:47:45;9.38;;;8.32;;
1987;SDS011;12775;46.994;15.498;2023-06-10T13:50:13;8.04;;;7.24;;
1987;SDS011;12775;46.994;15.498;2023-06-10T13:52:40;9.62;;;6.82;;
1987;SDS011;12775;46.994;15.498;2023-06-10T13:55:07;6.84;;;6.22;;
1987;SDS011;12775;46.994;15.498;2023-06-10T13:57:35;8.22;;;7.58;;
1987;SDS011;12775;46.994;15.498;2023-06-10T14:00:03;7.98;;;7.38;;
1987;SDS011;12775;46.994;15.498;2023-06-10T14:02:31;7.20;;;6.60;;
1987;SDS011;12775;46.994;15.498;2023-06-10T14:04:58;9.18;;;6.82;;
1987;SDS011;12775;46.994;15.498;2023-06-10T14:07:24;9.52;;;5.90;;
1987;SDS011;12775;46.994;15.498;2023-06-10T14:09:51;6.96;;;6.36;;
1987;SDS011;12775;46.994;15.498;2023-06-10T14:12:18;6.38;;;5.78;;
1987;SDS011;12775;46.994;15.498;2023-06-10T14:14:46;6.72;;;5.90;;
1987;SDS011;12775;46.994;15.498;2023-06-10T14:17:13;6.08;;;5.58;;
1987;SDS011;12775;46.994;15.498;2023-06-10T14:19:40;7.00;;;6.38;;
1987;SDS011;12775;46.994;15.498;2023-06-10T14:22:07;6.70;;;6.14;;
1987;SDS011;12775;46.994;15.498;2023-06-10T14:24:35;6.60;;;6.10;;
1987;SDS011;12775;46.994;15.498;2023-06-10T14:27:01;6.90;;;6.40;;
1987;SDS011;12775;46.994;15.498;2023-06-10T14:29:28;7.32;;;6.62;;
1987;SDS011;12775;46.994;15.498;2023-06-10T14:31:55;8.00;;;7.30;;
1987;SDS011;12775;46.994;15.498;2023-06-10T14:34:21;7.14;;;6.40;;
1987;SDS011;12775;46.994;15.498;2023-06-10T14:36:48;7.66;;;6.88;;
1987;SDS011;12775;46.994;15.498;2023-06-10T14:39:16;7.36;;;6.76;;
1987;SDS011;12775;46.994;15.498;2023-06-10T14:41:42;9.16;;;8.46;;
1987;SDS011;12775;46.994;15.498;2023-06-10T14:44:10;8.14;;;7.50;;
1987;SDS011;12775;46.994;15.498;2023-06-10T14:46:38;8.56;;;7.86;;
1987;SDS011;12775;46.994;15.498;2023-06-10T14:49:05;8.30;;;7.50;;
1987;SDS011;12775;46.994;15.498;2023-06-10T14:51:32;7.16;;;6.66;;
1987;SDS011;12775;46.994;15.498;2023-06-10T14:53:59;8.78;;;8.08;;
1987;SDS011;12775;46.994;15.498;2023-06-10T14:56:26;7.14;;;6.64;;
1987;SDS011;12775;46.994;15.498;2023-06-10T14:58:52;7.98;;;7.24;;